Aviation Digital Data Service (ADDS)

Output produced by METARs form (0716 UTC 24 June 2018)
found at http://www.aviationweather.gov/adds/metars/
 
KMGW 240553Z AUTO 19003KT 10SM BKN070 19/19 A2989 RMK AO2 SLP111 T01940189 10222 20189 53006
KMGW 240453Z AUTO 20003KT 9SM CLR 19/18 A2987 RMK AO2 SLP108 T01890183 402500189
KMGW 240353Z AUTO 18003KT 10SM CLR 19/19 A2987 RMK AO2 SLP106 T01940189
KMGW 240253Z 19003KT 10SM BKN070 21/19 A2987 RMK AO2 SLP106 T02110189 51011
KMGW 240153Z 18003KT 10SM OVC070 21/19 A2986 RMK AO2 SLP103 T02110194
KMGW 240053Z 18003KT 10SM BKN080 22/20 A2984 RMK AO2 SLP096 T02170200
KMGW 232353Z 17004KT 10SM FEW028 SCT035 BKN070 22/19 A2983 RMK AO2 SLP094 60005 T02220194 10250 20200 53002
KMGW 232253Z VRB04KT 10SM CLR 23/19 A2982 RMK AO2 SLP087 T02280189
KMGW 232153Z VRB04KT 10SM BKN080 22/19 A2981 RMK AO2 RAE07 SLP087 P0000 T02170194
KMGW 232053Z 21008G17KT 7SM -RA FEW012 BKN048 OVC070 21/19 A2983 RMK AO2 RAB22 SLP092 P0003 60005 T02060189 53007
KMGW 231953Z VRB04KT 10SM FEW065 BKN080 BKN110 24/20 A2980 RMK AO2 RAB14E31 SLP082 P0002 T02390200
KMGW 231853Z 29005KT 10SM SCT029 BKN041 BKN055 24/18 A2981 RMK AO2 SLP084 T02440183
KMGW 231753Z 22010G14KT 10SM FEW034 SCT042 SCT050 24/19 A2981 RMK AO2 RAE07 SLP084 P0001 60006 T02440189 10244 20206 58005
KMGW 231707Z 20006KT 10SM FEW021 SCT030 BKN110 23/20 A2981 RMK AO2 RAE07 P0001 T02280200
KMGW 231653Z VRB04KT 9SM -RA SCT023 BKN029 BKN039 22/19 A2981 RMK AO2 RAB52 SLP087 P0000 T02220189
KMGW 231553Z 23005KT 4SM HZ SCT060 23/19 A2982 RMK AO2 RAE09 SLP089 P0002 T02280189
KMGW 231501Z 23006KT 4SM -RA BR SCT039 BKN050 OVC065 21/18 A2983 RMK AO2 P0001 T02060183
KMGW 231453Z VRB05KT 2SM RA BR FEW019 BKN050 OVC065 21/19 A2982 RMK AO2 RAB28 SLP091 P0003 60003 T02110189 50002
KMGW 231353Z 21005KT 10SM SCT024 BKN031 BKN041 22/18 A2983 RMK AO2 SLP093 T02220178
KMGW 231253Z 22009KT 10SM SCT020 BKN025 BKN090 22/18 A2983 RMK AO2 SLP092 T02220178
KMGW 231153Z 21004KT 10SM OVC080 21/17 A2982 RMK AO2 SLP088 70007 T02110172 10217 20194 53012
KMGW 231053Z 20004KT 10SM FEW030 BKN040 OVC047 21/17 A2981 RMK AO2 SLP085 T02110167
KMGW 230953Z AUTO 19003KT 10SM FEW034 BKN075 OVC110 21/17 A2979 RMK AO2 SLP079 T02110167
KMGW 230853Z AUTO 18004KT 10SM SCT060 BKN110 21/16 A2978 RMK AO2 SLP077 T02110161 55003
KMGW 230753Z AUTO 15006KT 10SM FEW065 SCT080 20/16 A2978 RMK AO2 SLP076 T02000161